createdAt,value
2022-11-02T00:00:30.660Z,99.90
2022-11-02T00:02:57.828Z,99.90
2022-11-02T00:05:25.385Z,99.90
2022-11-02T00:07:54.255Z,99.90
2022-11-02T00:10:23.380Z,99.90
2022-11-02T00:12:51.021Z,99.90
2022-11-02T00:15:19.071Z,99.90
2022-11-02T00:17:50.891Z,99.90
2022-11-02T00:20:20.767Z,99.90
2022-11-02T00:22:50.810Z,99.90
2022-11-02T00:25:21.067Z,99.90
2022-11-02T00:27:48.086Z,99.90
2022-11-02T00:30:15.536Z,99.90
2022-11-02T00:32:42.594Z,99.90
2022-11-02T00:35:10.356Z,99.90
2022-11-02T00:37:37.430Z,99.90
2022-11-02T00:40:05.975Z,99.90
2022-11-02T00:42:33.086Z,99.90
2022-11-02T00:45:00.128Z,99.90
2022-11-02T00:47:27.302Z,99.90
2022-11-02T00:49:54.304Z,99.90
2022-11-02T00:52:21.353Z,99.90
2022-11-02T00:54:48.340Z,99.90
2022-11-02T00:57:15.307Z,99.90
2022-11-02T00:59:42.550Z,99.90
2022-11-02T01:02:09.722Z,99.90
2022-11-02T01:04:37.278Z,99.90
2022-11-02T01:07:04.474Z,99.90
2022-11-02T01:09:31.552Z,99.90
2022-11-02T01:11:58.607Z,99.90
2022-11-02T01:14:25.671Z,99.90
2022-11-02T01:16:52.826Z,99.90
2022-11-02T01:19:19.838Z,99.90
2022-11-02T01:21:46.859Z,99.90
2022-11-02T01:24:13.832Z,99.90
2022-11-02T01:26:40.853Z,99.90
2022-11-02T01:29:07.839Z,99.90
2022-11-02T01:31:35.045Z,99.90
2022-11-02T01:34:02.092Z,99.90
2022-11-02T01:36:29.156Z,99.90
2022-11-02T01:38:56.338Z,99.90
2022-11-02T01:41:23.473Z,99.90
2022-11-02T01:43:55.742Z,99.90
2022-11-02T01:46:45.760Z,99.90
2022-11-02T01:49:19.616Z,99.90
2022-11-02T01:52:09.910Z,99.90
2022-11-02T01:54:48.766Z,99.90
2022-11-02T01:57:21.360Z,99.90
2022-11-02T02:00:03.803Z,99.90
2022-11-02T02:02:31.973Z,99.90
2022-11-02T02:05:12.993Z,99.90
2022-11-02T02:07:41.710Z,99.90
2022-11-02T02:10:12.910Z,99.90
2022-11-02T02:12:43.080Z,99.90
2022-11-02T02:15:13.656Z,99.90
2022-11-02T02:17:49.509Z,99.90
2022-11-02T02:20:53.649Z,99.90
2022-11-02T02:24:03.049Z,99.90
2022-11-02T02:27:14.048Z,99.90
2022-11-02T02:30:17.484Z,99.90
2022-11-02T02:33:02.196Z,99.90
2022-11-02T02:35:37.236Z,99.90
2022-11-02T02:38:12.477Z,99.90
2022-11-02T02:41:02.662Z,99.90
2022-11-02T02:43:38.536Z,99.90
2022-11-02T02:46:17.416Z,99.90
2022-11-02T02:48:47.992Z,99.90
2022-11-02T02:51:36.234Z,99.90
2022-11-02T02:54:11.878Z,99.90
2022-11-02T02:56:48.525Z,99.90
2022-11-02T02:59:29.158Z,99.90
2022-11-02T03:01:57.155Z,99.90
2022-11-02T03:04:24.778Z,99.90
2022-11-02T03:06:58.639Z,99.90
2022-11-02T03:09:35.316Z,99.90
2022-11-02T03:12:32.311Z,99.90
2022-11-02T03:15:20.762Z,99.90
2022-11-02T03:17:50.606Z,99.90
2022-11-02T03:20:34.346Z,99.90
2022-11-02T03:23:21.050Z,99.90
2022-11-02T03:25:59.793Z,99.90
2022-11-02T03:29:06.178Z,99.90
2022-11-02T03:31:46.425Z,99.90
2022-11-02T03:34:37.791Z,99.90
2022-11-02T03:37:46.614Z,99.90
2022-11-02T03:40:31.772Z,99.90
2022-11-02T03:43:00.735Z,99.90
2022-11-02T03:45:40.927Z,99.90
2022-11-02T03:48:12.799Z,99.90
2022-11-02T03:50:46.802Z,99.90
2022-11-02T03:53:34.522Z,99.90
2022-11-02T03:56:09.761Z,99.90
2022-11-02T03:58:36.811Z,99.90
2022-11-02T04:01:10.468Z,99.90
2022-11-02T04:03:43.509Z,99.90
2022-11-02T04:06:12.429Z,99.90
2022-11-02T04:08:49.293Z,99.90
2022-11-02T04:11:49.316Z,99.90
2022-11-02T04:14:35.422Z,99.90
2022-11-02T04:17:21.258Z,99.90
2022-11-02T04:19:51.898Z,99.90
2022-11-02T04:22:38.301Z,99.90
2022-11-02T04:25:16.141Z,99.90
2022-11-02T04:27:48.103Z,99.90
2022-11-02T04:30:21.946Z,99.90
2022-11-02T04:33:09.822Z,99.90
2022-11-02T04:35:38.231Z,99.90
2022-11-02T04:38:24.122Z,99.90
2022-11-02T04:41:11.097Z,99.90
2022-11-02T04:43:38.173Z,99.90
2022-11-02T04:46:05.285Z,99.90
2022-11-02T04:48:32.353Z,99.90
2022-11-02T04:50:59.404Z,99.90
2022-11-02T04:53:26.401Z,99.90
2022-11-02T04:55:53.386Z,99.90
2022-11-02T04:58:20.601Z,99.90
2022-11-02T05:00:47.565Z,99.90
2022-11-02T05:03:14.560Z,99.90
2022-11-02T05:05:41.549Z,99.90
2022-11-02T05:08:08.553Z,99.90
2022-11-02T05:10:35.937Z,99.90
2022-11-02T05:13:03.172Z,99.90
2022-11-02T05:15:30.415Z,99.90
2022-11-02T05:17:57.438Z,99.90
2022-11-02T05:20:24.524Z,99.90
2022-11-02T05:22:51.492Z,99.90
2022-11-02T05:25:18.544Z,99.90
2022-11-02T05:27:45.521Z,99.90
2022-11-02T05:30:13.526Z,99.90
2022-11-02T05:32:40.765Z,99.90
2022-11-02T05:35:08.488Z,99.90
2022-11-02T05:37:35.541Z,99.90
2022-11-02T05:40:02.558Z,99.90
2022-11-02T05:42:29.628Z,99.90
2022-11-02T05:44:56.669Z,99.90
2022-11-02T05:47:23.701Z,99.90
2022-11-02T05:49:50.721Z,99.90
2022-11-02T05:52:17.745Z,99.90
2022-11-02T05:54:44.696Z,99.90
2022-11-02T05:57:11.732Z,99.90
2022-11-02T05:59:38.853Z,99.90
2022-11-02T06:02:05.837Z,99.90
2022-11-02T06:04:32.915Z,99.90
2022-11-02T06:07:00.055Z,99.90
2022-11-02T06:09:27.641Z,99.90
2022-11-02T06:11:56.493Z,99.90
2022-11-02T06:14:23.699Z,99.90
2022-11-02T06:16:50.664Z,99.90
2022-11-02T06:19:17.594Z,99.90
2022-11-02T06:21:47.525Z,99.90
2022-11-02T06:24:15.789Z,99.90
2022-11-02T06:26:43.045Z,99.90
2022-11-02T06:29:10.050Z,99.90
2022-11-02T06:31:37.098Z,99.90
2022-11-02T06:34:04.439Z,99.90
2022-11-02T06:36:31.627Z,99.90
2022-11-02T06:38:58.649Z,99.90
2022-11-02T06:41:25.676Z,99.90
2022-11-02T06:43:52.688Z,99.90
2022-11-02T06:46:19.771Z,99.90
2022-11-02T06:48:48.080Z,99.90
2022-11-02T06:51:15.352Z,99.90
2022-11-02T06:53:42.364Z,99.90
2022-11-02T06:56:10.101Z,99.90
2022-11-02T06:58:37.610Z,99.90
2022-11-02T07:01:08.064Z,99.90
2022-11-02T07:03:35.818Z,99.90
2022-11-02T07:06:05.564Z,99.90
2022-11-02T07:08:34.438Z,99.90
2022-11-02T07:11:01.631Z,99.90
2022-11-02T07:13:29.256Z,99.90
2022-11-02T07:15:56.502Z,99.90
2022-11-02T07:18:24.015Z,99.90
2022-11-02T07:20:51.142Z,99.90
2022-11-02T07:23:18.463Z,99.90
2022-11-02T07:25:45.609Z,99.90
2022-11-02T07:28:15.871Z,99.90
2022-11-02T07:30:49.679Z,99.90
2022-11-02T07:33:19.277Z,99.90
2022-11-02T07:35:46.446Z,99.90
2022-11-02T07:38:16.276Z,99.90
2022-11-02T07:40:43.740Z,99.90
2022-11-02T07:43:11.433Z,99.90
2022-11-02T07:45:39.605Z,99.90
2022-11-02T07:48:06.709Z,99.90
2022-11-02T07:50:34.273Z,99.90
2022-11-02T07:53:01.723Z,99.90
2022-11-02T07:55:31.217Z,99.90
2022-11-02T07:58:09.442Z,99.90
2022-11-02T08:00:39.967Z,99.90
2022-11-02T08:03:09.933Z,99.90
2022-11-02T08:05:40.572Z,99.90
2022-11-02T08:08:15.077Z,99.90
2022-11-02T08:10:47.047Z,99.90
2022-11-02T08:13:22.233Z,99.90
2022-11-02T08:15:52.153Z,99.90
2022-11-02T08:18:23.656Z,99.90
2022-11-02T08:20:52.720Z,99.90
2022-11-02T08:23:21.086Z,99.90
2022-11-02T08:25:51.290Z,99.90
2022-11-02T08:28:40.250Z,99.90
2022-11-02T08:31:16.633Z,99.90
2022-11-02T08:33:47.811Z,99.90
2022-11-02T08:36:15.041Z,99.90
2022-11-02T08:38:42.485Z,99.90
2022-11-02T08:41:09.974Z,99.90
2022-11-02T08:43:37.306Z,99.90
2022-11-02T08:46:19.921Z,99.90
2022-11-02T08:48:47.352Z,99.90
2022-11-02T08:51:17.973Z,99.90
2022-11-02T08:53:51.220Z,99.90
2022-11-02T08:56:22.532Z,99.90
2022-11-02T08:58:50.080Z,99.90
2022-11-02T09:01:18.853Z,99.90
2022-11-02T09:03:46.025Z,99.90
2022-11-02T09:06:13.174Z,99.90
2022-11-02T09:08:40.158Z,99.90
2022-11-02T09:11:07.485Z,99.90
2022-11-02T09:13:34.650Z,99.90
2022-11-02T09:16:02.814Z,99.90
2022-11-02T09:18:30.267Z,99.90
2022-11-02T09:21:01.387Z,99.90
2022-11-02T09:23:28.561Z,99.90
2022-11-02T09:25:55.786Z,99.90
2022-11-02T09:28:23.057Z,99.90
2022-11-02T09:30:50.240Z,99.90
2022-11-02T09:33:17.341Z,99.90
2022-11-02T09:35:48.406Z,99.90
2022-11-02T09:38:18.523Z,99.90
2022-11-02T09:40:53.988Z,99.90
2022-11-02T09:43:48.691Z,99.90
2022-11-02T09:46:48.771Z,99.90
2022-11-02T09:49:22.349Z,99.90
2022-11-02T09:51:56.542Z,99.90
2022-11-02T09:54:35.827Z,99.90
2022-11-02T09:57:14.814Z,99.90
2022-11-02T09:59:42.380Z,99.90
2022-11-02T10:02:28.003Z,99.90
2022-11-02T10:05:34.782Z,99.90
2022-11-02T10:08:48.952Z,99.90
2022-11-02T10:11:33.214Z,99.90
2022-11-02T10:14:13.308Z,99.90
2022-11-02T10:17:01.986Z,99.90
2022-11-02T10:19:30.716Z,99.90
2022-11-02T10:21:59.224Z,99.90
2022-11-02T10:24:39.931Z,99.90
2022-11-02T10:27:32.773Z,99.90
2022-11-02T10:30:14.649Z,99.90
2022-11-02T10:32:44.777Z,99.90
2022-11-02T10:39:13.655Z,99.90
2022-11-02T10:41:57.640Z,99.90
2022-11-02T10:44:59.413Z,99.90
2022-11-02T10:47:43.329Z,99.90
2022-11-02T10:50:54.945Z,99.90
2022-11-02T10:56:23.910Z,99.90
2022-11-02T10:59:13.313Z,99.90
2022-11-02T11:01:58.853Z,99.90
2022-11-02T11:04:28.978Z,99.90
2022-11-02T11:06:58.474Z,99.90
2022-11-02T11:09:37.319Z,99.90
2022-11-02T11:12:20.877Z,99.90
2022-11-02T11:20:37.391Z,99.90
2022-11-02T11:23:27.546Z,99.90
2022-11-02T11:26:01.769Z,99.90
2022-11-02T11:28:43.086Z,99.90
2022-11-02T11:31:17.476Z,99.90
2022-11-02T11:33:50.886Z,99.90
2022-11-02T11:36:33.631Z,98.70
2022-11-02T11:39:04.893Z,90.40
2022-11-02T11:41:34.619Z,94.20
2022-11-02T11:44:03.103Z,99.90
2022-11-02T11:46:46.670Z,96.50
2022-11-02T11:50:10.232Z,97.60
2022-11-02T11:52:31.198Z,99.90
2022-11-02T11:55:04.242Z,99.90
2022-11-02T12:00:28.258Z,99.90
2022-11-02T12:03:11.853Z,99.90
2022-11-02T12:06:23.091Z,99.90
2022-11-02T12:09:43.090Z,99.90
2022-11-02T12:12:33.151Z,99.90
2022-11-02T12:15:38.996Z,99.90
2022-11-02T12:18:42.342Z,99.90
2022-11-02T12:21:44.045Z,99.90
2022-11-02T12:24:42.126Z,99.90
2022-11-02T12:27:43.660Z,99.90
2022-11-02T12:30:23.543Z,99.90
2022-11-02T12:33:23.412Z,99.90
2022-11-02T12:36:27.133Z,99.90
2022-11-02T12:39:09.281Z,99.90
2022-11-02T12:42:13.360Z,99.90
2022-11-02T12:45:00.637Z,99.90
2022-11-02T12:47:50.675Z,99.90
2022-11-02T12:50:29.592Z,99.90
2022-11-02T12:53:34.867Z,99.90
2022-11-02T12:56:06.574Z,99.90
2022-11-02T12:58:38.855Z,99.90
2022-11-02T13:01:32.231Z,99.90
2022-11-02T13:04:17.466Z,90.60
2022-11-02T13:06:51.734Z,98.80
2022-11-02T13:09:33.876Z,99.90
2022-11-02T13:12:10.420Z,95.90
2022-11-02T13:14:47.330Z,90.70
2022-11-02T13:17:40.944Z,83.70
2022-11-02T13:20:13.797Z,79.60
2022-11-02T13:22:43.617Z,94.60
2022-11-02T13:25:40.683Z,82.60
2022-11-02T13:28:14.411Z,94.50
2022-11-02T13:30:43.763Z,93.60
2022-11-02T13:33:40.793Z,94.50
2022-11-02T13:36:08.397Z,95.80
2022-11-02T13:38:44.622Z,92.30
2022-11-02T13:41:38.617Z,99.90
2022-11-02T13:44:42.572Z,99.50
2022-11-02T13:47:46.338Z,99.90
2022-11-02T13:50:19.507Z,96.30
2022-11-02T13:52:54.754Z,95.90
2022-11-02T13:55:57.505Z,98.20
2022-11-02T13:58:38.873Z,98.10
2022-11-02T14:01:11.021Z,90.10
2022-11-02T14:04:02.383Z,90.40
2022-11-02T14:06:34.618Z,91.40
2022-11-02T14:09:08.216Z,90.20
2022-11-02T14:11:47.459Z,90.10
2022-11-02T14:14:23.891Z,90.50
2022-11-02T14:16:50.966Z,92.00
2022-11-02T14:19:19.704Z,85.90
2022-11-02T14:21:52.783Z,73.00
2022-11-02T14:24:35.089Z,73.80
2022-11-02T14:27:16.558Z,80.00
2022-11-02T14:29:46.479Z,79.00
2022-11-02T14:32:28.447Z,67.30
2022-11-02T14:35:10.469Z,74.10
2022-11-02T14:38:11.285Z,68.80
2022-11-02T14:41:12.612Z,76.70
2022-11-02T14:43:45.605Z,69.10
2022-11-02T14:46:23.403Z,75.70
2022-11-02T14:48:54.081Z,69.90
2022-11-02T14:51:23.405Z,81.50
2022-11-02T14:54:06.153Z,95.90
2022-11-02T14:56:54.332Z,92.20
2022-11-02T14:59:40.514Z,77.90
2022-11-02T15:02:28.292Z,46.80
2022-11-02T15:04:59.496Z,56.70
2022-11-02T15:07:49.580Z,77.10
2022-11-02T15:10:16.437Z,71.60
2022-11-02T15:12:50.188Z,98.00
2022-11-02T15:15:36.554Z,77.90
2022-11-02T15:18:29.700Z,81.60
2022-11-02T15:21:12.265Z,81.50
2022-11-02T15:24:16.898Z,85.30
2022-11-02T15:26:52.382Z,80.10
2022-11-02T15:29:49.321Z,68.50
2022-11-02T15:32:25.432Z,78.20
2022-11-02T15:34:55.551Z,68.80
2022-11-02T15:37:30.057Z,51.90
2022-11-02T15:40:01.301Z,64.70
2022-11-02T15:42:46.413Z,65.10
2022-11-02T15:45:49.430Z,65.40
2022-11-02T15:48:49.033Z,69.70
2022-11-02T15:51:55.095Z,73.90
2022-11-02T15:54:51.982Z,65.00
2022-11-02T15:58:16.030Z,77.20
2022-11-02T16:00:43.606Z,73.40
2022-11-02T16:03:11.055Z,71.20
2022-11-02T16:05:47.431Z,73.40
2022-11-02T16:08:35.198Z,72.00
2022-11-02T16:11:21.034Z,70.30
2022-11-02T16:14:08.061Z,67.40
2022-11-02T16:16:50.458Z,67.00
2022-11-02T16:19:23.054Z,76.70
2022-11-02T16:21:50.896Z,76.20
2022-11-02T16:24:19.272Z,78.80
2022-11-02T16:26:48.528Z,87.90
2022-11-02T16:29:31.381Z,80.70
2022-11-02T16:31:58.493Z,89.00
2022-11-02T16:34:34.656Z,91.70
2022-11-02T16:37:10.022Z,91.90
2022-11-02T16:39:42.193Z,90.80
2022-11-02T16:42:22.889Z,86.80
2022-11-02T16:45:01.936Z,90.50
2022-11-02T16:47:39.631Z,94.20
2022-11-02T16:50:28.015Z,95.60
2022-11-02T16:53:04.311Z,93.80
2022-11-02T16:55:45.946Z,96.50
2022-11-02T16:58:21.723Z,99.40
2022-11-02T17:01:08.651Z,96.00
2022-11-02T17:03:36.187Z,94.50
2022-11-02T17:06:06.971Z,98.30
2022-11-02T17:08:37.986Z,98.30
2022-11-02T17:11:07.883Z,97.90
2022-11-02T17:13:44.963Z,99.90
2022-11-02T17:16:12.678Z,99.30
2022-11-02T17:18:40.008Z,99.90
2022-11-02T17:21:13.230Z,98.30
2022-11-02T17:23:46.108Z,99.90
2022-11-02T17:26:21.880Z,99.90
2022-11-02T17:28:55.462Z,99.90
2022-11-02T17:31:27.711Z,98.80
2022-11-02T17:33:56.635Z,99.90
2022-11-02T17:36:23.777Z,99.90
2022-11-02T17:38:51.568Z,99.90
2022-11-02T17:41:37.591Z,99.90
2022-11-02T17:44:17.446Z,99.90
2022-11-02T17:46:48.374Z,99.90
2022-11-02T17:49:17.757Z,99.90
2022-11-02T17:51:44.906Z,99.90
2022-11-02T17:54:14.563Z,99.90
2022-11-02T17:57:01.762Z,99.90
2022-11-02T17:59:31.320Z,99.90
2022-11-02T18:01:58.797Z,99.90
2022-11-02T18:04:26.193Z,99.90
2022-11-02T18:06:53.271Z,99.90
2022-11-02T18:09:31.429Z,99.90
2022-11-02T18:11:58.423Z,99.90
2022-11-02T18:14:32.651Z,99.90
2022-11-02T18:16:59.854Z,99.90
2022-11-02T18:19:28.275Z,99.90
2022-11-02T18:21:55.370Z,99.90
2022-11-02T18:24:22.557Z,99.90
2022-11-02T18:26:49.608Z,99.90
2022-11-02T18:29:17.230Z,99.90
2022-11-02T18:31:52.863Z,99.90
2022-11-02T18:34:20.062Z,99.90
2022-11-02T18:36:47.018Z,99.90
2022-11-02T18:39:14.206Z,99.90
2022-11-02T18:41:42.592Z,99.90
2022-11-02T18:44:14.869Z,99.90
2022-11-02T18:46:42.839Z,99.90
2022-11-02T18:49:09.866Z,99.90
2022-11-02T18:51:37.125Z,99.90
2022-11-02T18:54:06.202Z,99.90
2022-11-02T18:56:33.464Z,99.90
2022-11-02T18:59:03.522Z,99.90
2022-11-02T19:01:30.768Z,99.90
2022-11-02T19:04:00.402Z,99.90
2022-11-02T19:06:50.035Z,99.90
2022-11-02T19:09:18.986Z,99.90
2022-11-02T19:11:49.356Z,99.90
2022-11-02T19:14:18.169Z,99.90
2022-11-02T19:16:45.465Z,99.90
2022-11-02T19:19:12.508Z,99.90
2022-11-02T19:21:39.646Z,99.90
2022-11-02T19:24:07.445Z,99.90
2022-11-02T19:26:35.258Z,99.90
2022-11-02T19:29:06.062Z,99.90
2022-11-02T19:31:35.566Z,99.90
2022-11-02T19:34:04.195Z,99.90
2022-11-02T19:36:32.730Z,97.80
2022-11-02T19:39:03.059Z,93.80
2022-11-02T19:41:31.207Z,96.00
2022-11-02T19:43:58.371Z,97.10
2022-11-02T19:46:27.234Z,55.60
2022-11-02T19:48:57.108Z,57.20
2022-11-02T19:51:34.475Z,62.30
2022-11-02T19:54:02.958Z,95.20
2022-11-02T19:56:34.195Z,99.90
2022-11-02T19:59:03.176Z,99.90
2022-11-02T20:01:34.106Z,99.90
2022-11-02T20:04:02.129Z,99.90
2022-11-02T20:06:35.354Z,99.90
2022-11-02T20:09:05.633Z,99.90
2022-11-02T20:11:33.335Z,99.90
2022-11-02T20:14:02.437Z,99.90
2022-11-02T20:16:29.874Z,99.90
2022-11-02T20:18:59.195Z,99.90
2022-11-02T20:21:35.611Z,99.90
2022-11-02T20:24:06.569Z,99.90
2022-11-02T20:26:37.313Z,99.90
2022-11-02T20:29:06.733Z,99.90
2022-11-02T20:31:39.797Z,99.90
2022-11-02T20:34:08.385Z,99.90
2022-11-02T20:36:36.183Z,99.90
2022-11-02T20:39:05.061Z,99.90
2022-11-02T20:41:32.689Z,99.90
2022-11-02T20:43:59.750Z,62.00
2022-11-02T20:46:39.039Z,99.90
2022-11-02T20:49:21.030Z,99.90
2022-11-02T20:51:58.119Z,99.90
2022-11-02T20:54:26.577Z,99.90
2022-11-02T20:56:53.906Z,99.90
2022-11-02T20:59:21.193Z,99.90
2022-11-02T21:01:48.435Z,99.90
2022-11-02T21:04:20.755Z,99.90
2022-11-02T21:06:50.217Z,99.90
2022-11-02T21:09:20.278Z,99.90
2022-11-02T21:12:06.115Z,99.90
2022-11-02T21:14:33.306Z,99.90
2022-11-02T21:17:03.004Z,91.90
2022-11-02T21:19:30.116Z,99.90
2022-11-02T21:22:00.077Z,99.90
2022-11-02T21:24:28.665Z,99.90
2022-11-02T21:26:55.737Z,99.90
2022-11-02T21:29:22.841Z,99.90
2022-11-02T21:31:50.054Z,99.90
2022-11-02T21:34:17.119Z,99.90
2022-11-02T21:36:44.322Z,99.90
2022-11-02T21:39:11.460Z,99.90
2022-11-02T21:41:39.585Z,99.90
2022-11-02T21:44:07.621Z,99.90
2022-11-02T21:46:35.824Z,99.90
2022-11-02T21:49:03.685Z,99.90
2022-11-02T21:51:31.395Z,99.90
2022-11-02T21:53:58.938Z,99.90
2022-11-02T21:56:29.635Z,99.90
2022-11-02T21:58:56.722Z,99.90
2022-11-02T22:01:45.032Z,99.90
2022-11-02T22:04:31.762Z,99.90
2022-11-02T22:07:00.340Z,99.90
2022-11-02T22:09:28.799Z,99.90
2022-11-02T22:12:15.772Z,99.90
2022-11-02T22:14:44.781Z,99.90
2022-11-02T22:17:35.418Z,99.90
2022-11-02T22:20:00.532Z,99.90
2022-11-02T22:22:27.750Z,99.90
2022-11-02T22:24:54.803Z,99.90
2022-11-02T22:27:21.844Z,99.90
2022-11-02T22:29:48.810Z,99.90
2022-11-02T22:32:15.897Z,99.90
2022-11-02T22:34:43.721Z,99.90
2022-11-02T22:37:29.432Z,99.90
2022-11-02T22:39:56.424Z,99.90
2022-11-02T22:42:23.535Z,99.90
2022-11-02T22:44:50.545Z,99.90
2022-11-02T22:47:17.493Z,99.90
2022-11-02T22:49:44.742Z,99.90
2022-11-02T22:52:11.770Z,99.90
2022-11-02T22:54:38.728Z,99.90
2022-11-02T22:57:05.728Z,99.90
2022-11-02T22:59:32.742Z,99.90
2022-11-02T23:01:59.871Z,99.90
2022-11-02T23:04:27.311Z,99.90
2022-11-02T23:06:54.561Z,99.90
2022-11-02T23:09:21.817Z,99.90
2022-11-02T23:11:48.879Z,99.90
2022-11-02T23:14:17.070Z,99.90
2022-11-02T23:16:47.149Z,99.90
2022-11-02T23:19:28.264Z,99.90
2022-11-02T23:22:20.691Z,99.90
2022-11-02T23:25:11.281Z,99.90
2022-11-02T23:27:59.366Z,99.90
2022-11-02T23:30:48.592Z,99.90
2022-11-02T23:33:16.542Z,99.90
2022-11-02T23:36:02.415Z,99.90
2022-11-02T23:38:49.652Z,99.90
2022-11-02T23:41:18.399Z,99.90
2022-11-02T23:43:45.912Z,99.90
2022-11-02T23:46:13.775Z,99.90
2022-11-02T23:48:47.043Z,99.90
2022-11-02T23:51:35.548Z,99.90
2022-11-02T23:54:21.386Z,99.90
2022-11-02T23:56:50.104Z,99.90
2022-11-02T23:59:18.371Z,99.90
